KPPF/PPF METAR and TAF weather

Enter ICAO airport designator
Station Type Date Time Source
KPPF METAR 2021/09/23 23:52 UTC NOAA

KPPF 232352Z AUTO 17003KT 10SM CLR 24/07 A3002 RMK AO2 SLP164 T02390072 10278 20239 56007


Station Type Date Time Source
KPPF Decoded METAR 2021/09/23 23:52 UTC NOAA

PARSONS TRI-CITY AIRPORT, KS, United States (KPPF) 37-20N 95-30W 274M
Sep 23, 2021 - 07:52 PM EDT / 2021.09.23 2352 UTC
Wind: from the S (170 degrees) at 3 MPH (3 KT):0
Visibility: 10 mile(s):0
Sky conditions: clear
Temperature: 75.0 F (23.9 C)
Dew Point: 45.0 F (7.2 C)
Relative Humidity: 34%
Pressure (altimeter): 30.02 in. Hg (1016 hPa)
Pressure tendency: 0.02 inches (0.7 hPa) lower than three hours ago
ob: KPPF 232352Z AUTO 17003KT 10SM CLR 24/07 A3002 RMK AO2 SLP164 T02390072 10278 20239 56007
cycle: 0

Station Type Date Time Source
KPPF TAF UTC NOAA

Error!

Example: see airport list